sensor_id;sensor_type;location;lat;lon;timestamp;temperature;humidity
14614;DHT22;7393;51.446;6.800;2023-07-29T00:00:41;20.40;1.00
14614;DHT22;7393;51.446;6.800;2023-07-29T00:03:10;20.40;1.00
14614;DHT22;7393;51.446;6.800;2023-07-29T00:05:37;20.40;1.00
14614;DHT22;7393;51.446;6.800;2023-07-29T00:08:04;20.40;1.00
14614;DHT22;7393;51.446;6.800;2023-07-29T00:10:32;20.40;1.00
14614;DHT22;7393;51.446;6.800;2023-07-29T00:12:59;20.30;1.00
14614;DHT22;7393;51.446;6.800;2023-07-29T00:15:26;20.30;1.00
14614;DHT22;7393;51.446;6.800;2023-07-29T00:17:52;20.30;1.00
14614;DHT22;7393;51.446;6.800;2023-07-29T00:20:21;20.20;1.00
14614;DHT22;7393;51.446;6.800;2023-07-29T00:22:48;20.20;1.00
14614;DHT22;7393;51.446;6.800;2023-07-29T00:25:15;20.20;1.00
14614;DHT22;7393;51.446;6.800;2023-07-29T00:27:42;20.20;1.00
14614;DHT22;7393;51.446;6.800;2023-07-29T00:30:10;20.20;1.00
14614;DHT22;7393;51.446;6.800;2023-07-29T00:32:37;20.20;1.00
14614;DHT22;7393;51.446;6.800;2023-07-29T00:35:04;20.20;1.00
14614;DHT22;7393;51.446;6.800;2023-07-29T00:37:33;20.20;1.00
14614;DHT22;7393;51.446;6.800;2023-07-29T00:39:59;20.10;1.00
14614;DHT22;7393;51.446;6.800;2023-07-29T00:42:26;20.20;1.00
14614;DHT22;7393;51.446;6.800;2023-07-29T00:44:53;20.20;1.00
14614;DHT22;7393;51.446;6.800;2023-07-29T00:47:20;20.10;1.00
14614;DHT22;7393;51.446;6.800;2023-07-29T00:49:48;20.10;1.00
14614;DHT22;7393;51.446;6.800;2023-07-29T00:52:14;20.10;1.00
14614;DHT22;7393;51.446;6.800;2023-07-29T00:54:43;20.00;1.00
14614;DHT22;7393;51.446;6.800;2023-07-29T00:57:11;20.00;1.00
14614;DHT22;7393;51.446;6.800;2023-07-29T00:59:40;20.00;1.00
14614;DHT22;7393;51.446;6.800;2023-07-29T01:02:07;20.00;1.00
14614;DHT22;7393;51.446;6.800;2023-07-29T01:04:34;20.00;1.00
14614;DHT22;7393;51.446;6.800;2023-07-29T01:07:09;20.00;1.00
14614;DHT22;7393;51.446;6.800;2023-07-29T01:09:46;20.00;1.00
14614;DHT22;7393;51.446;6.800;2023-07-29T01:12:20;20.00;1.00
14614;DHT22;7393;51.446;6.800;2023-07-29T01:14:55;20.00;1.00
14614;DHT22;7393;51.446;6.800;2023-07-29T01:17:30;20.00;1.00
14614;DHT22;7393;51.446;6.800;2023-07-29T01:20:01;20.00;1.00
14614;DHT22;7393;51.446;6.800;2023-07-29T01:22:32;20.10;1.00
14614;DHT22;7393;51.446;6.800;2023-07-29T01:25:01;20.10;1.00
14614;DHT22;7393;51.446;6.800;2023-07-29T01:27:28;20.00;1.00
14614;DHT22;7393;51.446;6.800;2023-07-29T01:29:56;20.00;1.00
14614;DHT22;7393;51.446;6.800;2023-07-29T01:32:28;20.10;1.00
14614;DHT22;7393;51.446;6.800;2023-07-29T01:34:59;20.00;1.00
14614;DHT22;7393;51.446;6.800;2023-07-29T01:37:27;20.00;1.00
14614;DHT22;7393;51.446;6.800;2023-07-29T01:39:57;20.10;1.00
14614;DHT22;7393;51.446;6.800;2023-07-29T01:42:27;20.00;1.00
14614;DHT22;7393;51.446;6.800;2023-07-29T01:44:54;20.10;1.00
14614;DHT22;7393;51.446;6.800;2023-07-29T01:47:21;20.10;1.00
14614;DHT22;7393;51.446;6.800;2023-07-29T01:49:48;20.10;1.00
14614;DHT22;7393;51.446;6.800;2023-07-29T01:52:15;20.10;1.00
14614;DHT22;7393;51.446;6.800;2023-07-29T01:54:42;20.10;1.00
14614;DHT22;7393;51.446;6.800;2023-07-29T01:57:09;20.10;1.00
14614;DHT22;7393;51.446;6.800;2023-07-29T01:59:38;20.00;1.00
14614;DHT22;7393;51.446;6.800;2023-07-29T02:02:04;20.10;1.00
14614;DHT22;7393;51.446;6.800;2023-07-29T02:04:31;20.10;1.00
14614;DHT22;7393;51.446;6.800;2023-07-29T02:06:58;20.10;1.00
14614;DHT22;7393;51.446;6.800;2023-07-29T02:09:25;20.10;1.00
14614;DHT22;7393;51.446;6.800;2023-07-29T02:11:53;20.10;1.00
14614;DHT22;7393;51.446;6.800;2023-07-29T02:14:19;20.10;1.00
14614;DHT22;7393;51.446;6.800;2023-07-29T02:16:47;20.00;1.00
14614;DHT22;7393;51.446;6.800;2023-07-29T02:19:14;20.00;1.00
14614;DHT22;7393;51.446;6.800;2023-07-29T02:21:41;20.00;1.00
14614;DHT22;7393;51.446;6.800;2023-07-29T02:24:08;20.00;1.00
14614;DHT22;7393;51.446;6.800;2023-07-29T02:26:35;20.00;1.00
14614;DHT22;7393;51.446;6.800;2023-07-29T02:29:02;20.00;1.00
14614;DHT22;7393;51.446;6.800;2023-07-29T02:31:29;20.00;1.00
14614;DHT22;7393;51.446;6.800;2023-07-29T02:33:57;20.00;1.00
14614;DHT22;7393;51.446;6.800;2023-07-29T02:36:24;20.00;1.00
14614;DHT22;7393;51.446;6.800;2023-07-29T02:38:50;20.00;1.00
14614;DHT22;7393;51.446;6.800;2023-07-29T02:41:17;20.00;1.00
14614;DHT22;7393;51.446;6.800;2023-07-29T02:43:48;20.00;1.00
14614;DHT22;7393;51.446;6.800;2023-07-29T02:46:15;20.00;1.00
14614;DHT22;7393;51.446;6.800;2023-07-29T02:48:42;20.00;1.00
14614;DHT22;7393;51.446;6.800;2023-07-29T02:51:10;20.00;1.00
14614;DHT22;7393;51.446;6.800;2023-07-29T02:53:37;20.00;1.00
14614;DHT22;7393;51.446;6.800;2023-07-29T02:56:04;20.00;1.00
14614;DHT22;7393;51.446;6.800;2023-07-29T02:58:31;19.90;1.00
14614;DHT22;7393;51.446;6.800;2023-07-29T03:01:01;19.90;1.00
14614;DHT22;7393;51.446;6.800;2023-07-29T03:03:28;19.90;1.00
14614;DHT22;7393;51.446;6.800;2023-07-29T03:05:58;19.90;1.00
14614;DHT22;7393;51.446;6.800;2023-07-29T03:08:26;19.90;1.00
14614;DHT22;7393;51.446;6.800;2023-07-29T03:10:54;19.90;1.00
14614;DHT22;7393;51.446;6.800;2023-07-29T03:13:20;19.90;1.00
14614;DHT22;7393;51.446;6.800;2023-07-29T03:15:47;19.90;1.00
14614;DHT22;7393;51.446;6.800;2023-07-29T03:18:15;19.90;1.00
14614;DHT22;7393;51.446;6.800;2023-07-29T03:20:42;19.90;1.00
14614;DHT22;7393;51.446;6.800;2023-07-29T03:23:08;19.90;1.00
14614;DHT22;7393;51.446;6.800;2023-07-29T03:25:36;19.90;1.00
14614;DHT22;7393;51.446;6.800;2023-07-29T03:28:03;19.90;1.00
14614;DHT22;7393;51.446;6.800;2023-07-29T03:30:30;19.90;1.00
14614;DHT22;7393;51.446;6.800;2023-07-29T03:32:57;19.90;1.00
14614;DHT22;7393;51.446;6.800;2023-07-29T03:35:24;19.90;1.00
14614;DHT22;7393;51.446;6.800;2023-07-29T03:37:51;19.90;1.00
14614;DHT22;7393;51.446;6.800;2023-07-29T03:40:18;19.90;1.00
14614;DHT22;7393;51.446;6.800;2023-07-29T03:42:46;19.90;1.00
14614;DHT22;7393;51.446;6.800;2023-07-29T03:45:13;19.90;1.00
14614;DHT22;7393;51.446;6.800;2023-07-29T03:47:40;20.00;1.00
14614;DHT22;7393;51.446;6.800;2023-07-29T03:50:08;20.00;1.00
14614;DHT22;7393;51.446;6.800;2023-07-29T03:52:35;20.00;1.00
14614;DHT22;7393;51.446;6.800;2023-07-29T03:55:02;19.90;1.00
14614;DHT22;7393;51.446;6.800;2023-07-29T03:57:29;19.90;1.00
14614;DHT22;7393;51.446;6.800;2023-07-29T03:59:57;19.90;1.00
14614;DHT22;7393;51.446;6.800;2023-07-29T04:02:24;19.90;1.00
14614;DHT22;7393;51.446;6.800;2023-07-29T04:04:51;19.90;1.00
14614;DHT22;7393;51.446;6.800;2023-07-29T04:07:17;19.80;1.00
14614;DHT22;7393;51.446;6.800;2023-07-29T04:09:44;19.80;1.00
14614;DHT22;7393;51.446;6.800;2023-07-29T04:12:11;19.80;1.00
14614;DHT22;7393;51.446;6.800;2023-07-29T04:14:38;19.80;1.00
14614;DHT22;7393;51.446;6.800;2023-07-29T04:17:07;19.80;1.00
14614;DHT22;7393;51.446;6.800;2023-07-29T04:19:34;19.80;1.00
14614;DHT22;7393;51.446;6.800;2023-07-29T04:22:00;19.70;1.00
14614;DHT22;7393;51.446;6.800;2023-07-29T04:24:27;19.70;1.00
14614;DHT22;7393;51.446;6.800;2023-07-29T04:26:54;19.70;1.00
14614;DHT22;7393;51.446;6.800;2023-07-29T04:29:21;19.70;1.00
14614;DHT22;7393;51.446;6.800;2023-07-29T04:31:49;19.70;1.00
14614;DHT22;7393;51.446;6.800;2023-07-29T04:34:17;19.70;1.00
14614;DHT22;7393;51.446;6.800;2023-07-29T04:36:44;19.70;1.00
14614;DHT22;7393;51.446;6.800;2023-07-29T04:39:11;19.70;1.00
14614;DHT22;7393;51.446;6.800;2023-07-29T04:41:38;19.70;1.00
14614;DHT22;7393;51.446;6.800;2023-07-29T04:44:05;19.70;1.00
14614;DHT22;7393;51.446;6.800;2023-07-29T04:46:32;19.70;1.00
14614;DHT22;7393;51.446;6.800;2023-07-29T04:48:59;19.70;1.00
14614;DHT22;7393;51.446;6.800;2023-07-29T04:51:27;19.70;1.00
14614;DHT22;7393;51.446;6.800;2023-07-29T04:53:54;19.70;1.00
14614;DHT22;7393;51.446;6.800;2023-07-29T04:56:20;19.60;1.00
14614;DHT22;7393;51.446;6.800;2023-07-29T04:58:47;19.60;1.00
14614;DHT22;7393;51.446;6.800;2023-07-29T05:01:14;19.60;1.00
14614;DHT22;7393;51.446;6.800;2023-07-29T05:03:41;19.50;1.00
14614;DHT22;7393;51.446;6.800;2023-07-29T05:06:08;19.50;1.00
14614;DHT22;7393;51.446;6.800;2023-07-29T05:08:36;19.50;1.00
14614;DHT22;7393;51.446;6.800;2023-07-29T05:11:03;19.50;1.00
14614;DHT22;7393;51.446;6.800;2023-07-29T05:13:30;19.50;1.00
14614;DHT22;7393;51.446;6.800;2023-07-29T05:15:57;19.50;1.00
14614;DHT22;7393;51.446;6.800;2023-07-29T05:18:23;19.50;1.00
14614;DHT22;7393;51.446;6.800;2023-07-29T05:20:50;19.50;1.00
14614;DHT22;7393;51.446;6.800;2023-07-29T05:23:17;19.50;1.00
14614;DHT22;7393;51.446;6.800;2023-07-29T05:25:45;19.50;1.00
14614;DHT22;7393;51.446;6.800;2023-07-29T05:28:12;19.50;1.00
14614;DHT22;7393;51.446;6.800;2023-07-29T05:30:39;19.50;1.00
14614;DHT22;7393;51.446;6.800;2023-07-29T05:33:06;19.50;1.00
14614;DHT22;7393;51.446;6.800;2023-07-29T05:35:33;19.50;1.00
14614;DHT22;7393;51.446;6.800;2023-07-29T05:38:00;19.50;1.00
14614;DHT22;7393;51.446;6.800;2023-07-29T05:40:28;19.50;1.00
14614;DHT22;7393;51.446;6.800;2023-07-29T05:42:57;19.50;1.00
14614;DHT22;7393;51.446;6.800;2023-07-29T05:45:23;19.50;1.00
14614;DHT22;7393;51.446;6.800;2023-07-29T05:47:50;19.50;1.00
14614;DHT22;7393;51.446;6.800;2023-07-29T05:50:17;19.50;1.00
14614;DHT22;7393;51.446;6.800;2023-07-29T05:52:44;19.40;1.00
14614;DHT22;7393;51.446;6.800;2023-07-29T05:55:10;19.40;1.00
14614;DHT22;7393;51.446;6.800;2023-07-29T05:57:37;19.40;1.00
14614;DHT22;7393;51.446;6.800;2023-07-29T06:00:06;19.40;1.00
14614;DHT22;7393;51.446;6.800;2023-07-29T06:02:33;19.40;1.00
14614;DHT22;7393;51.446;6.800;2023-07-29T06:05:00;19.40;1.00
14614;DHT22;7393;51.446;6.800;2023-07-29T06:07:28;19.30;1.00
14614;DHT22;7393;51.446;6.800;2023-07-29T06:09:56;19.30;1.00
14614;DHT22;7393;51.446;6.800;2023-07-29T06:12:23;19.30;1.00
14614;DHT22;7393;51.446;6.800;2023-07-29T06:14:50;19.30;1.00
14614;DHT22;7393;51.446;6.800;2023-07-29T06:17:18;19.30;1.00
14614;DHT22;7393;51.446;6.800;2023-07-29T06:19:45;19.30;1.00
14614;DHT22;7393;51.446;6.800;2023-07-29T06:22:12;19.30;1.00
14614;DHT22;7393;51.446;6.800;2023-07-29T06:24:38;19.30;1.00
14614;DHT22;7393;51.446;6.800;2023-07-29T06:27:06;19.30;1.00
14614;DHT22;7393;51.446;6.800;2023-07-29T06:29:32;19.30;1.00
14614;DHT22;7393;51.446;6.800;2023-07-29T06:31:59;19.30;1.00
14614;DHT22;7393;51.446;6.800;2023-07-29T06:34:27;19.30;1.00
14614;DHT22;7393;51.446;6.800;2023-07-29T06:36:54;19.30;1.00
14614;DHT22;7393;51.446;6.800;2023-07-29T06:39:21;19.40;99.90
14614;DHT22;7393;51.446;6.800;2023-07-29T06:41:48;19.40;99.90
14614;DHT22;7393;51.446;6.800;2023-07-29T06:44:15;19.40;99.90
14614;DHT22;7393;51.446;6.800;2023-07-29T06:46:41;19.40;43.20
14614;DHT22;7393;51.446;6.800;2023-07-29T06:49:08;19.40;99.90
14614;DHT22;7393;51.446;6.800;2023-07-29T06:51:36;19.40;99.90
14614;DHT22;7393;51.446;6.800;2023-07-29T06:54:03;19.50;1.00
14614;DHT22;7393;51.446;6.800;2023-07-29T06:56:30;19.50;1.00
14614;DHT22;7393;51.446;6.800;2023-07-29T06:58:57;19.60;99.90
14614;DHT22;7393;51.446;6.800;2023-07-29T07:01:24;19.70;99.90
14614;DHT22;7393;51.446;6.800;2023-07-29T07:03:50;19.70;99.90
14614;DHT22;7393;51.446;6.800;2023-07-29T07:06:20;19.70;1.00
14614;DHT22;7393;51.446;6.800;2023-07-29T07:08:48;19.80;99.90
14614;DHT22;7393;51.446;6.800;2023-07-29T07:11:15;19.80;99.90
14614;DHT22;7393;51.446;6.800;2023-07-29T07:13:42;19.80;1.00
14614;DHT22;7393;51.446;6.800;2023-07-29T07:16:09;19.90;12.60
14614;DHT22;7393;51.446;6.800;2023-07-29T07:18:35;20.00;1.00
14614;DHT22;7393;51.446;6.800;2023-07-29T07:21:02;20.00;1.00
14614;DHT22;7393;51.446;6.800;2023-07-29T07:23:29;20.10;1.00
14614;DHT22;7393;51.446;6.800;2023-07-29T07:25:57;20.10;99.90
14614;DHT22;7393;51.446;6.800;2023-07-29T07:28:24;20.20;1.00
14614;DHT22;7393;51.446;6.800;2023-07-29T07:30:51;20.20;1.00
14614;DHT22;7393;51.446;6.800;2023-07-29T07:33:18;20.20;1.00
14614;DHT22;7393;51.446;6.800;2023-07-29T07:35:45;20.30;1.00
14614;DHT22;7393;51.446;6.800;2023-07-29T07:38:11;20.40;53.40
14614;DHT22;7393;51.446;6.800;2023-07-29T07:40:38;20.40;1.00
14614;DHT22;7393;51.446;6.800;2023-07-29T07:43:06;20.40;99.90
14614;DHT22;7393;51.446;6.800;2023-07-29T07:45:33;20.50;41.40
14614;DHT22;7393;51.446;6.800;2023-07-29T07:48:00;20.50;3.40
14614;DHT22;7393;51.446;6.800;2023-07-29T07:50:29;20.70;99.90
14614;DHT22;7393;51.446;6.800;2023-07-29T07:52:56;20.70;1.00
14614;DHT22;7393;51.446;6.800;2023-07-29T07:55:22;20.80;1.00
14614;DHT22;7393;51.446;6.800;2023-07-29T07:57:49;20.90;1.00
14614;DHT22;7393;51.446;6.800;2023-07-29T08:00:17;21.10;99.90
14614;DHT22;7393;51.446;6.800;2023-07-29T08:02:45;21.20;1.00
14614;DHT22;7393;51.446;6.800;2023-07-29T08:05:12;21.30;99.90
14614;DHT22;7393;51.446;6.800;2023-07-29T08:07:39;21.40;99.90
14614;DHT22;7393;51.446;6.800;2023-07-29T08:10:07;21.50;1.00
14614;DHT22;7393;51.446;6.800;2023-07-29T08:12:33;21.60;99.90
14614;DHT22;7393;51.446;6.800;2023-07-29T08:15:00;21.60;99.90
14614;DHT22;7393;51.446;6.800;2023-07-29T08:17:29;21.70;1.00
14614;DHT22;7393;51.446;6.800;2023-07-29T08:19:56;21.90;99.90
14614;DHT22;7393;51.446;6.800;2023-07-29T08:22:23;22.00;99.90
14614;DHT22;7393;51.446;6.800;2023-07-29T08:24:50;22.20;99.90
14614;DHT22;7393;51.446;6.800;2023-07-29T08:27:17;22.20;1.00
14614;DHT22;7393;51.446;6.800;2023-07-29T08:29:43;22.30;1.00
14614;DHT22;7393;51.446;6.800;2023-07-29T08:32:10;22.30;1.00
14614;DHT22;7393;51.446;6.800;2023-07-29T08:34:38;22.40;1.00
14614;DHT22;7393;51.446;6.800;2023-07-29T08:37:06;22.60;1.00
14614;DHT22;7393;51.446;6.800;2023-07-29T08:39:32;22.60;99.90
14614;DHT22;7393;51.446;6.800;2023-07-29T08:42:02;22.60;99.90
14614;DHT22;7393;51.446;6.800;2023-07-29T08:44:35;22.80;99.90
14614;DHT22;7393;51.446;6.800;2023-07-29T08:47:03;22.80;1.00
14614;DHT22;7393;51.446;6.800;2023-07-29T08:49:31;23.00;99.90
14614;DHT22;7393;51.446;6.800;2023-07-29T08:52:01;23.00;99.90
14614;DHT22;7393;51.446;6.800;2023-07-29T08:54:28;23.20;99.90
14614;DHT22;7393;51.446;6.800;2023-07-29T08:56:55;23.30;99.90
14614;DHT22;7393;51.446;6.800;2023-07-29T08:59:22;23.40;99.90
14614;DHT22;7393;51.446;6.800;2023-07-29T09:01:50;23.40;99.90
14614;DHT22;7393;51.446;6.800;2023-07-29T09:04:21;23.30;99.90
14614;DHT22;7393;51.446;6.800;2023-07-29T09:06:50;23.20;99.90
14614;DHT22;7393;51.446;6.800;2023-07-29T09:09:18;23.10;99.90
14614;DHT22;7393;51.446;6.800;2023-07-29T09:11:45;23.00;99.90
14614;DHT22;7393;51.446;6.800;2023-07-29T09:14:13;22.90;99.90
14614;DHT22;7393;51.446;6.800;2023-07-29T09:16:41;22.80;99.90
14614;DHT22;7393;51.446;6.800;2023-07-29T09:19:08;22.70;99.90
14614;DHT22;7393;51.446;6.800;2023-07-29T09:21:38;22.70;99.90
14614;DHT22;7393;51.446;6.800;2023-07-29T09:24:05;22.60;99.90
14614;DHT22;7393;51.446;6.800;2023-07-29T09:26:35;22.60;99.90
14614;DHT22;7393;51.446;6.800;2023-07-29T09:29:02;22.60;99.90
14614;DHT22;7393;51.446;6.800;2023-07-29T09:31:29;22.70;99.90
14614;DHT22;7393;51.446;6.800;2023-07-29T09:33:56;22.70;99.90
14614;DHT22;7393;51.446;6.800;2023-07-29T09:36:24;22.60;99.90
14614;DHT22;7393;51.446;6.800;2023-07-29T09:38:54;22.50;99.90
14614;DHT22;7393;51.446;6.800;2023-07-29T09:41:22;22.40;99.90
14614;DHT22;7393;51.446;6.800;2023-07-29T09:43:55;22.40;99.90
14614;DHT22;7393;51.446;6.800;2023-07-29T09:46:23;22.30;99.90
14614;DHT22;7393;51.446;6.800;2023-07-29T09:48:53;22.30;99.90
14614;DHT22;7393;51.446;6.800;2023-07-29T09:51:21;22.20;1.00
14614;DHT22;7393;51.446;6.800;2023-07-29T09:53:50;22.40;1.00
14614;DHT22;7393;51.446;6.800;2023-07-29T09:56:18;22.40;1.00
14614;DHT22;7393;51.446;6.800;2023-07-29T09:58:50;22.60;1.00
14614;DHT22;7393;51.446;6.800;2023-07-29T10:01:18;22.80;1.00
14614;DHT22;7393;51.446;6.800;2023-07-29T10:03:45;23.20;1.00
14614;DHT22;7393;51.446;6.800;2023-07-29T10:06:14;23.50;99.90
14614;DHT22;7393;51.446;6.800;2023-07-29T10:08:42;23.70;99.90
14614;DHT22;7393;51.446;6.800;2023-07-29T10:11:10;24.00;99.90
14614;DHT22;7393;51.446;6.800;2023-07-29T10:13:38;24.10;99.90
14614;DHT22;7393;51.446;6.800;2023-07-29T10:16:05;24.10;85.80
14614;DHT22;7393;51.446;6.800;2023-07-29T10:18:33;24.10;44.60
14614;DHT22;7393;51.446;6.800;2023-07-29T10:21:02;24.10;85.00
14614;DHT22;7393;51.446;6.800;2023-07-29T10:23:43;24.10;87.40
14614;DHT22;7393;51.446;6.800;2023-07-29T10:26:13;24.20;57.40
14614;DHT22;7393;51.446;6.800;2023-07-29T10:28:41;24.30;40.80
14614;DHT22;7393;51.446;6.800;2023-07-29T10:31:10;24.40;43.90
14614;DHT22;7393;51.446;6.800;2023-07-29T10:33:39;24.40;14.80
14614;DHT22;7393;51.446;6.800;2023-07-29T10:36:06;24.50;19.90
14614;DHT22;7393;51.446;6.800;2023-07-29T10:38:33;24.60;25.40
14614;DHT22;7393;51.446;6.800;2023-07-29T10:41:00;24.70;2.00
14614;DHT22;7393;51.446;6.800;2023-07-29T10:43:31;24.60;1.00
14614;DHT22;7393;51.446;6.800;2023-07-29T10:46:14;24.50;1.00
14614;DHT22;7393;51.446;6.800;2023-07-29T10:48:44;24.40;1.00
14614;DHT22;7393;51.446;6.800;2023-07-29T10:51:25;24.40;1.00
14614;DHT22;7393;51.446;6.800;2023-07-29T10:53:53;24.50;1.00
14614;DHT22;7393;51.446;6.800;2023-07-29T10:56:28;24.60;1.00
14614;DHT22;7393;51.446;6.800;2023-07-29T10:59:22;24.80;1.00
14614;DHT22;7393;51.446;6.800;2023-07-29T11:01:51;24.90;1.00
14614;DHT22;7393;51.446;6.800;2023-07-29T11:04:27;24.90;1.00
14614;DHT22;7393;51.446;6.800;2023-07-29T11:07:20;24.80;1.00
14614;DHT22;7393;51.446;6.800;2023-07-29T11:10:02;24.90;1.00
14614;DHT22;7393;51.446;6.800;2023-07-29T11:12:43;24.80;1.00
14614;DHT22;7393;51.446;6.800;2023-07-29T11:15:29;24.80;1.00
14614;DHT22;7393;51.446;6.800;2023-07-29T11:17:57;24.60;1.00
14614;DHT22;7393;51.446;6.800;2023-07-29T11:20:26;24.50;1.00
14614;DHT22;7393;51.446;6.800;2023-07-29T11:22:54;24.50;1.00
14614;DHT22;7393;51.446;6.800;2023-07-29T11:25:23;24.50;1.00
14614;DHT22;7393;51.446;6.800;2023-07-29T11:27:51;24.40;1.00
14614;DHT22;7393;51.446;6.800;2023-07-29T11:30:18;24.40;1.00
14614;DHT22;7393;51.446;6.800;2023-07-29T11:32:46;24.30;1.00
14614;DHT22;7393;51.446;6.800;2023-07-29T11:35:14;24.30;1.00
14614;DHT22;7393;51.446;6.800;2023-07-29T11:37:44;24.40;1.00
14614;DHT22;7393;51.446;6.800;2023-07-29T11:40:14;24.50;1.00
14614;DHT22;7393;51.446;6.800;2023-07-29T11:42:41;24.60;1.00
14614;DHT22;7393;51.446;6.800;2023-07-29T11:45:09;24.70;1.00
14614;DHT22;7393;51.446;6.800;2023-07-29T11:47:36;24.80;1.00
14614;DHT22;7393;51.446;6.800;2023-07-29T11:50:04;24.90;1.00
14614;DHT22;7393;51.446;6.800;2023-07-29T11:52:32;25.00;1.00
14614;DHT22;7393;51.446;6.800;2023-07-29T11:55:01;25.10;1.00
14614;DHT22;7393;51.446;6.800;2023-07-29T11:57:29;25.10;1.00
14614;DHT22;7393;51.446;6.800;2023-07-29T11:59:56;25.10;1.00
14614;DHT22;7393;51.446;6.800;2023-07-29T12:02:24;25.10;1.00
14614;DHT22;7393;51.446;6.800;2023-07-29T12:04:51;25.10;1.00
14614;DHT22;7393;51.446;6.800;2023-07-29T12:07:19;25.10;1.00
14614;DHT22;7393;51.446;6.800;2023-07-29T12:09:46;25.20;1.00
14614;DHT22;7393;51.446;6.800;2023-07-29T12:12:15;25.20;1.00
14614;DHT22;7393;51.446;6.800;2023-07-29T12:14:44;25.20;1.00
14614;DHT22;7393;51.446;6.800;2023-07-29T12:17:12;25.20;1.00
14614;DHT22;7393;51.446;6.800;2023-07-29T12:19:40;25.20;1.00
14614;DHT22;7393;51.446;6.800;2023-07-29T12:22:08;25.30;1.00
14614;DHT22;7393;51.446;6.800;2023-07-29T12:24:37;25.30;1.00
14614;DHT22;7393;51.446;6.800;2023-07-29T12:27:05;25.40;1.00
14614;DHT22;7393;51.446;6.800;2023-07-29T12:29:40;25.40;1.00
14614;DHT22;7393;51.446;6.800;2023-07-29T12:32:07;25.50;1.00
14614;DHT22;7393;51.446;6.800;2023-07-29T12:34:38;25.50;1.00
14614;DHT22;7393;51.446;6.800;2023-07-29T12:37:06;25.50;1.00
14614;DHT22;7393;51.446;6.800;2023-07-29T12:39:34;25.40;1.00
14614;DHT22;7393;51.446;6.800;2023-07-29T12:42:03;25.50;1.00
14614;DHT22;7393;51.446;6.800;2023-07-29T12:44:31;25.50;1.00
14614;DHT22;7393;51.446;6.800;2023-07-29T12:47:00;25.70;1.00
14614;DHT22;7393;51.446;6.800;2023-07-29T12:49:27;25.60;1.00
14614;DHT22;7393;51.446;6.800;2023-07-29T12:51:55;25.60;1.00
14614;DHT22;7393;51.446;6.800;2023-07-29T12:54:21;25.60;1.00
14614;DHT22;7393;51.446;6.800;2023-07-29T12:56:48;25.60;1.00
14614;DHT22;7393;51.446;6.800;2023-07-29T12:59:15;25.70;1.00
14614;DHT22;7393;51.446;6.800;2023-07-29T13:01:42;25.60;1.00
14614;DHT22;7393;51.446;6.800;2023-07-29T13:04:11;25.60;1.00
14614;DHT22;7393;51.446;6.800;2023-07-29T13:06:38;25.60;1.00
14614;DHT22;7393;51.446;6.800;2023-07-29T13:09:04;25.60;1.00
14614;DHT22;7393;51.446;6.800;2023-07-29T13:11:34;25.70;1.00
14614;DHT22;7393;51.446;6.800;2023-07-29T13:14:01;25.70;1.00
14614;DHT22;7393;51.446;6.800;2023-07-29T13:16:28;25.70;1.00
14614;DHT22;7393;51.446;6.800;2023-07-29T13:18:55;25.70;1.00
14614;DHT22;7393;51.446;6.800;2023-07-29T13:21:23;25.80;1.00
14614;DHT22;7393;51.446;6.800;2023-07-29T13:23:51;25.80;1.00
14614;DHT22;7393;51.446;6.800;2023-07-29T13:26:18;25.70;1.00
14614;DHT22;7393;51.446;6.800;2023-07-29T13:28:45;25.70;1.00
14614;DHT22;7393;51.446;6.800;2023-07-29T13:31:11;25.60;1.00
14614;DHT22;7393;51.446;6.800;2023-07-29T13:33:39;25.50;1.00
14614;DHT22;7393;51.446;6.800;2023-07-29T13:36:05;25.50;1.00
14614;DHT22;7393;51.446;6.800;2023-07-29T13:38:35;25.40;1.00
14614;DHT22;7393;51.446;6.800;2023-07-29T13:41:02;25.30;1.00
14614;DHT22;7393;51.446;6.800;2023-07-29T13:43:28;25.20;1.00
14614;DHT22;7393;51.446;6.800;2023-07-29T13:45:55;25.10;1.00
14614;DHT22;7393;51.446;6.800;2023-07-29T13:48:22;24.90;1.00
14614;DHT22;7393;51.446;6.800;2023-07-29T13:50:49;24.80;1.00
14614;DHT22;7393;51.446;6.800;2023-07-29T13:53:16;24.50;1.00
14614;DHT22;7393;51.446;6.800;2023-07-29T13:55:45;24.30;1.00
14614;DHT22;7393;51.446;6.800;2023-07-29T13:58:12;24.10;1.00
14614;DHT22;7393;51.446;6.800;2023-07-29T14:00:39;24.00;71.40
14614;DHT22;7393;51.446;6.800;2023-07-29T14:03:05;23.90;99.90
14614;DHT22;7393;51.446;6.800;2023-07-29T14:05:32;23.80;99.90
14614;DHT22;7393;51.446;6.800;2023-07-29T14:07:59;23.70;1.00
14614;DHT22;7393;51.446;6.800;2023-07-29T14:10:26;23.60;99.90
14614;DHT22;7393;51.446;6.800;2023-07-29T14:12:54;23.50;99.90
14614;DHT22;7393;51.446;6.800;2023-07-29T14:15:21;23.30;52.30
14614;DHT22;7393;51.446;6.800;2023-07-29T14:17:48;23.20;1.00
14614;DHT22;7393;51.446;6.800;2023-07-29T14:20:15;23.00;99.90
14614;DHT22;7393;51.446;6.800;2023-07-29T14:22:42;22.90;1.00
14614;DHT22;7393;51.446;6.800;2023-07-29T14:25:09;22.90;99.90
14614;DHT22;7393;51.446;6.800;2023-07-29T14:27:36;23.00;24.50
14614;DHT22;7393;51.446;6.800;2023-07-29T14:30:05;23.10;99.90
14614;DHT22;7393;51.446;6.800;2023-07-29T14:32:32;23.20;1.00
14614;DHT22;7393;51.446;6.800;2023-07-29T14:34:59;23.30;1.00
14614;DHT22;7393;51.446;6.800;2023-07-29T14:37:29;23.30;1.00
14614;DHT22;7393;51.446;6.800;2023-07-29T14:39:55;23.40;1.00
14614;DHT22;7393;51.446;6.800;2023-07-29T14:42:22;23.50;1.00
14614;DHT22;7393;51.446;6.800;2023-07-29T14:44:49;23.60;1.00
14614;DHT22;7393;51.446;6.800;2023-07-29T14:47:17;23.60;1.00
14614;DHT22;7393;51.446;6.800;2023-07-29T14:49:44;23.70;99.90
14614;DHT22;7393;51.446;6.800;2023-07-29T14:52:11;23.80;1.00
14614;DHT22;7393;51.446;6.800;2023-07-29T14:54:38;23.80;1.00
14614;DHT22;7393;51.446;6.800;2023-07-29T14:57:06;23.70;1.00
14614;DHT22;7393;51.446;6.800;2023-07-29T14:59:35;23.70;1.00
14614;DHT22;7393;51.446;6.800;2023-07-29T15:02:02;23.70;1.00
14614;DHT22;7393;51.446;6.800;2023-07-29T15:04:30;23.60;99.90
14614;DHT22;7393;51.446;6.800;2023-07-29T15:06:57;23.60;1.00
14614;DHT22;7393;51.446;6.800;2023-07-29T15:09:24;23.50;99.90
14614;DHT22;7393;51.446;6.800;2023-07-29T15:11:51;23.40;1.00
14614;DHT22;7393;51.446;6.800;2023-07-29T15:14:17;23.30;99.90
14614;DHT22;7393;51.446;6.800;2023-07-29T15:16:44;23.30;1.00
14614;DHT22;7393;51.446;6.800;2023-07-29T15:19:11;23.20;99.90
14614;DHT22;7393;51.446;6.800;2023-07-29T15:21:40;23.10;1.00
14614;DHT22;7393;51.446;6.800;2023-07-29T15:24:07;23.10;99.90
14614;DHT22;7393;51.446;6.800;2023-07-29T15:26:34;23.10;1.00
14614;DHT22;7393;51.446;6.800;2023-07-29T15:29:01;23.10;1.00
14614;DHT22;7393;51.446;6.800;2023-07-29T15:31:28;23.10;1.00
14614;DHT22;7393;51.446;6.800;2023-07-29T15:33:55;23.10;1.00
14614;DHT22;7393;51.446;6.800;2023-07-29T15:36:22;23.00;1.00
14614;DHT22;7393;51.446;6.800;2023-07-29T15:38:50;23.00;99.90
14614;DHT22;7393;51.446;6.800;2023-07-29T15:41:17;23.00;99.90
14614;DHT22;7393;51.446;6.800;2023-07-29T15:43:44;23.10;99.90
14614;DHT22;7393;51.446;6.800;2023-07-29T15:46:11;23.10;99.90
14614;DHT22;7393;51.446;6.800;2023-07-29T15:48:37;23.10;99.90
14614;DHT22;7393;51.446;6.800;2023-07-29T15:51:04;23.10;99.90
14614;DHT22;7393;51.446;6.800;2023-07-29T15:53:31;23.00;1.00
14614;DHT22;7393;51.446;6.800;2023-07-29T15:55:59;23.00;72.30
14614;DHT22;7393;51.446;6.800;2023-07-29T15:58:26;23.00;1.00
14614;DHT22;7393;51.446;6.800;2023-07-29T16:00:53;22.90;99.90